Time;durP1;ratioP1;P1;durP2;ratioP2;P2;SDS_P1;SDS_P2;PMS_P1;PMS_P2;Temp;Humidity;BMP_temperature;BMP_pressure;BME280_temperature;BME280_humidity;BME280_pressure;Samples;Min_cycle;Max_cycle;Signal;HPM_P1;HPM_P2
2021/03/30 00:00:24;;;;;;;141.63;65.03;;;282.20;1612.80;;;;;;5034177;28;20542;-64
2021/03/30 00:02:50;;;;;;;121.40;59.63;;;282.20;1612.80;;;;;;5033665;28;20113;-57
2021/03/30 00:05:17;;;;;;;111.72;55.10;;;282.20;1612.80;;;;;;5033660;28;20096;-58
2021/03/30 00:07:43;;;;;;;79.70;43.75;;;282.20;1612.80;;;;;;5033138;28;20068;-60
2021/03/30 00:10:16;;;;;;;79.65;44.88;;;282.20;1638.40;;;;;;5032166;28;20483;-57
2021/03/30 00:12:42;;;;;;;87.35;47.35;;;282.10;1664.00;;;;;;5033783;28;20038;-63
2021/03/30 00:15:10;;;;;;;93.47;48.60;;;282.10;1638.40;;;;;;5033979;28;20030;-57
2021/03/30 00:17:36;;;;;;;92.32;48.08;;;282.00;1638.40;;;;;;5033332;28;20025;-58
2021/03/30 00:20:08;;;;;;;90.28;46.60;;;282.10;1638.40;;;;;;5032284;28;20053;-60
2021/03/30 00:22:33;;;;;;;77.25;43.50;;;282.10;1664.00;;;;;;5033428;28;20022;-57
2021/03/30 00:24:59;;;;;;;95.20;48.78;;;282.00;1664.00;;;;;;5033190;28;20064;-61
2021/03/30 00:27:25;;;;;;;93.15;51.00;;;282.00;1664.00;;;;;;5033344;28;20466;-57
2021/03/30 00:29:50;;;;;;;81.70;44.55;;;282.00;1664.00;;;;;;5033202;28;20037;-62
2021/03/30 00:32:16;;;;;;;56.20;32.85;;;282.00;1664.00;;;;;;5033228;28;20029;-57
2021/03/30 00:34:42;;;;;;;50.92;29.95;;;281.90;1638.40;;;;;;5033164;28;20018;-58
2021/03/30 00:37:08;;;;;;;38.53;22.63;;;281.80;1664.00;;;;;;5033246;28;20518;-57
2021/03/30 00:39:33;;;;;;;34.97;20.23;;;281.60;1664.00;;;;;;5033289;28;20364;-58
2021/03/30 00:41:59;;;;;;;26.67;16.35;;;256.90;1664.00;;;;;;5033106;28;20075;-57
2021/03/30 00:44:25;;;;;;;32.03;16.40;;;256.90;1638.40;;;;;;5033088;28;20025;-57
2021/03/30 00:46:52;;;;;;;23.73;14.57;;;256.90;1664.00;;;;;;5032870;28;20032;-61
2021/03/30 00:49:21;;;;;;;25.48;14.57;;;256.80;1664.00;;;;;;5033233;28;20425;-57
2021/03/30 00:51:48;;;;;;;21.65;13.73;;;256.80;1664.00;;;;;;5032737;28;20020;-58
2021/03/30 00:54:15;;;;;;;19.80;10.73;;;256.70;1664.00;;;;;;5032846;28;20025;-62
2021/03/30 00:56:42;;;;;;;19.70;11.98;;;256.60;1664.00;;;;;;5032696;28;20231;-57
2021/03/30 00:59:10;;;;;;;15.13;9.20;;;256.50;1689.60;;;;;;5034003;28;20033;-58
2021/03/30 01:01:36;;;;;;;18.48;10.90;;;256.40;1689.60;;;;;;5032590;28;20033;-57
2021/03/30 01:04:01;;;;;;;18.80;10.05;;;256.40;1689.60;;;;;;5032827;28;20024;-58
2021/03/30 01:06:27;;;;;;;15.85;8.68;;;256.40;1689.60;;;;;;5032559;28;20100;-57
2021/03/30 01:09:22;;;;;;;13.73;7.72;;;256.40;1689.60;;;;;;5032806;28;20022;-57
2021/03/30 01:12:09;;;;;;;15.30;9.52;;;256.40;1689.60;;;;;;5030423;28;20083;-61
2021/03/30 01:14:53;;;;;;;17.50;11.50;;;256.40;1689.60;;;;;;5031359;28;20031;-57
2021/03/30 01:17:22;;;;;;;19.15;12.00;;;256.40;1715.20;;;;;;5032106;28;20024;-58
2021/03/30 01:20:05;;;;;;;20.05;12.65;;;256.50;1689.60;;;;;;5032292;28;20036;-58
2021/03/30 01:23:09;;;;;;;21.30;12.45;;;256.60;1689.60;;;;;;5030386;28;20147;-58
2021/03/30 01:25:38;;;;;;;21.92;11.25;;;256.60;1689.60;;;;;;5031369;28;20021;-58
2021/03/30 01:28:09;;;;;;;21.55;11.38;;;256.70;1689.60;;;;;;5032527;28;20029;-62
2021/03/30 01:30:37;;;;;;;25.45;13.18;;;256.80;1664.00;;;;;;5032480;28;20090;-58
2021/03/30 01:33:10;;;;;;;34.90;16.75;;;256.80;1664.00;;;;;;5032058;28;20351;-57
2021/03/30 01:35:38;;;;;;;26.75;13.50;;;256.90;1664.00;;;;;;5032231;28;20105;-58
2021/03/30 01:38:06;;;;;;;20.30;11.13;;;281.60;1689.60;;;;;;5032760;28;20056;-58
2021/03/30 01:40:34;;;;;;;32.33;18.50;;;281.60;1664.00;;;;;;5033224;28;20364;-60
2021/03/30 01:43:02;;;;;;;23.05;12.52;;;281.80;1664.00;;;;;;5033327;28;20021;-59
2021/03/30 01:45:29;;;;;;;22.83;12.07;;;281.80;1664.00;;;;;;5032124;28;20107;-58
2021/03/30 01:47:56;;;;;;;25.10;12.82;;;281.90;1664.00;;;;;;5032755;28;20069;-57
2021/03/30 01:50:23;;;;;;;23.75;12.32;;;281.90;1664.00;;;;;;5033120;28;20497;-58
2021/03/30 01:52:50;;;;;;;24.90;12.45;;;281.90;1638.40;;;;;;5031940;28;20025;-63
2021/03/30 01:55:18;;;;;;;35.42;17.65;;;282.00;1664.00;;;;;;5030039;28;20056;-58
2021/03/30 01:57:46;;;;;;;29.17;14.77;;;282.00;1638.40;;;;;;5032002;28;20020;-57
2021/03/30 02:00:14;;;;;;;29.90;16.02;;;281.90;1638.40;;;;;;5032202;28;20037;-58
2021/03/30 02:02:45;;;;;;;32.78;15.55;;;282.10;1664.00;;;;;;5032181;28;20060;-57
2021/03/30 02:05:12;;;;;;;23.33;13.90;;;282.10;1638.40;;;;;;5031795;28;20026;-59
2021/03/30 02:07:43;;;;;;;24.25;13.30;;;282.20;1664.00;;;;;;5035726;28;20109;-57
2021/03/30 02:10:29;;;;;;;22.50;13.05;;;282.20;1664.00;;;;;;5037537;28;20382;-66
2021/03/30 02:12:58;;;;;;;22.02;11.77;;;282.20;1638.40;;;;;;5036595;28;20120;-61
2021/03/30 02:15:24;;;;;;;20.60;12.98;;;282.30;1612.80;;;;;;5036054;28;20029;-59
2021/03/30 02:18:12;;;;;;;21.48;12.75;;;282.30;1664.00;;;;;;5035865;28;20095;-64
2021/03/30 02:20:44;;;;;;;23.77;15.20;;;282.30;1740.80;;;;;;5033303;28;20041;-59
2021/03/30 02:23:17;;;;;;;27.42;16.38;;;282.30;1766.40;;;;;;5035884;28;20486;-58
2021/03/30 02:25:47;;;;;;;24.15;13.63;;;282.40;1792.00;;;;;;5033707;28;20514;-64
2021/03/30 02:28:18;;;;;;;23.10;13.15;;;282.40;1766.40;;;;;;5035515;28;20398;-58
2021/03/30 02:30:45;;;;;;;21.50;13.02;;;282.40;1689.60;;;;;;5034558;28;20050;-58
2021/03/30 02:33:14;;;;;;;23.73;13.35;;;282.50;1664.00;;;;;;5035510;28;20051;-58
2021/03/30 02:35:41;;;;;;;21.08;12.45;;;282.50;1638.40;;;;;;5035491;28;20050;-58
2021/03/30 02:38:08;;;;;;;21.23;12.50;;;282.50;1638.40;;;;;;5035611;28;20104;-59
2021/03/30 02:40:35;;;;;;;21.08;12.77;;;307.20;1664.00;;;;;;5035001;28;20112;-58
2021/03/30 02:43:02;;;;;;;24.20;11.82;;;307.20;1664.00;;;;;;5035720;28;20025;-58
2021/03/30 02:45:30;;;;;;;18.02;11.40;;;307.20;1664.00;;;;;;5035166;28;20045;-60
2021/03/30 02:48:00;;;;;;;20.60;11.93;;;282.50;1638.40;;;;;;5035229;28;20031;-60
2021/03/30 02:50:27;;;;;;;19.15;11.90;;;307.20;1664.00;;;;;;5034009;28;20033;-61
2021/03/30 02:52:55;;;;;;;20.98;12.77;;;282.50;1638.40;;;;;;5036361;28;20029;-61
2021/03/30 02:55:22;;;;;;;26.77;12.80;;;282.50;1638.40;;;;;;5035994;28;20120;-63
2021/03/30 02:57:49;;;;;;;20.73;12.18;;;282.50;1638.40;;;;;;5036480;28;20082;-60
2021/03/30 03:00:15;;;;;;;21.45;12.10;;;307.20;1689.60;;;;;;5035813;28;20030;-58
2021/03/30 03:02:42;;;;;;;25.63;12.68;;;282.50;1638.40;;;;;;5036150;28;20475;-58
2021/03/30 03:05:09;;;;;;;18.92;11.73;;;307.20;1664.00;;;;;;5036461;28;20360;-62
2021/03/30 03:07:36;;;;;;;19.70;11.75;;;282.50;1638.40;;;;;;5036185;28;20018;-65
2021/03/30 03:10:07;;;;;;;18.73;10.75;;;307.20;1664.00;;;;;;5035206;28;20048;-60
2021/03/30 03:12:36;;;;;;;23.55;12.63;;;307.20;1638.40;;;;;;5036154;28;20356;-58
2021/03/30 03:15:04;;;;;;;17.15;10.50;;;307.30;1638.40;;;;;;5035824;28;20107;-60
2021/03/30 03:17:31;;;;;;;17.55;10.10;;;307.30;1638.40;;;;;;5036087;28;20040;-57
2021/03/30 03:19:59;;;;;;;16.52;10.15;;;307.30;1612.80;;;;;;5035286;28;20053;-59
2021/03/30 03:22:25;;;;;;;18.95;9.90;;;307.40;1612.80;;;;;;5035738;28;20036;-58
2021/03/30 03:24:52;;;;;;;23.70;10.70;;;307.40;1638.40;;;;;;5035921;28;20029;-58
2021/03/30 03:27:18;;;;;;;16.98;10.05;;;307.40;1612.80;;;;;;5035911;28;20079;-58
2021/03/30 03:29:44;;;;;;;16.75;9.40;;;307.40;1612.80;;;;;;5035548;28;20045;-69
2021/03/30 03:32:10;;;;;;;18.13;9.00;;;307.40;1587.20;;;;;;5035727;28;20462;-60
2021/03/30 03:34:37;;;;;;;14.63;8.73;;;307.40;1587.20;;;;;;5036078;28;20022;-58
2021/03/30 03:37:04;;;;;;;14.25;8.20;;;307.40;1561.60;;;;;;5035581;28;20022;-58
2021/03/30 03:39:29;;;;;;;14.63;8.65;;;307.50;1561.60;;;;;;5035041;28;20033;-58
2021/03/30 03:41:55;;;;;;;14.43;8.60;;;307.50;1561.60;;;;;;5035261;28;20163;-61
2021/03/30 03:44:26;;;;;;;14.88;8.38;;;307.50;1561.60;;;;;;5034302;28;20368;-64
2021/03/30 03:46:52;;;;;;;15.35;8.05;;;307.50;1561.60;;;;;;5035531;28;20052;-63
2021/03/30 03:49:18;;;;;;;15.07;8.10;;;307.50;1561.60;;;;;;5035091;28;20022;-58
2021/03/30 03:51:50;;;;;;;14.68;8.07;;;307.50;1561.60;;;;;;5035075;28;20367;-60
2021/03/30 03:54:19;;;;;;;16.17;8.15;;;307.50;1561.60;;;;;;5035581;28;20367;-58
2021/03/30 03:56:53;;;;;;;13.73;8.13;;;307.50;1561.60;;;;;;5035414;28;20735;-62
2021/03/30 03:59:24;;;;;;;13.70;7.80;;;307.60;1561.60;;;;;;5035055;28;20471;-58
2021/03/30 04:02:14;;;;;;;13.80;8.00;;;307.60;1561.60;;;;;;5035313;28;20037;-58
2021/03/30 04:05:03;;;;;;;14.35;7.97;;;307.60;1561.60;;;;;;5034893;28;20151;-58
2021/03/30 04:07:37;;;;;;;13.90;7.70;;;307.70;1561.60;;;;;;5032957;28;20041;-66
2021/03/30 04:10:05;;;;;;;14.93;7.50;;;307.70;1561.60;;;;;;5033070;28;20157;-58
2021/03/30 04:12:32;;;;;;;12.75;7.32;;;307.70;1561.60;;;;;;5033145;28;20037;-58
2021/03/30 04:14:58;;;;;;;17.13;7.30;;;307.70;1561.60;;;;;;5016081;28;20076;-58
2021/03/30 04:17:24;;;;;;;14.85;7.70;;;307.70;1561.60;;;;;;5032865;28;20029;-58
2021/03/30 04:19:50;;;;;;;14.07;8.10;;;307.80;1561.60;;;;;;5032339;28;20041;-58
2021/03/30 04:22:16;;;;;;;14.38;7.95;;;307.80;1561.60;;;;;;5032816;28;20499;-58
2021/03/30 04:24:43;;;;;;;15.40;7.95;;;307.80;1561.60;;;;;;5032741;28;20041;-60
2021/03/30 04:27:11;;;;;;;13.40;8.35;;;307.80;1561.60;;;;;;5032655;28;20036;-64
2021/03/30 04:29:41;;;;;;;19.02;8.63;;;307.80;1561.60;;;;;;5031720;28;20052;-58
2021/03/30 04:32:10;;;;;;;14.32;8.60;;;307.80;1536.00;;;;;;5031422;28;20073;-65
2021/03/30 04:34:36;;;;;;;14.52;8.25;;;307.90;1561.60;;;;;;5032716;28;20021;-59
2021/03/30 04:37:03;;;;;;;14.57;7.80;;;307.90;1561.60;;;;;;5032293;28;20040;-59
2021/03/30 04:39:29;;;;;;;16.25;8.05;;;307.90;1536.00;;;;;;5031902;28;20439;-65
2021/03/30 04:41:54;;;;;;;14.98;8.30;;;307.90;1536.00;;;;;;5031731;28;20112;-59
2021/03/30 04:44:20;;;;;;;13.90;7.80;;;307.90;1536.00;;;;;;5032487;28;20033;-59
2021/03/30 04:46:46;;;;;;;17.17;8.77;;;308.00;1561.60;;;;;;5033352;28;20029;-62
2021/03/30 04:49:11;;;;;;;17.98;9.65;;;308.00;1536.00;;;;;;5037265;28;20033;-57
2021/03/30 04:51:37;;;;;;;20.48;10.70;;;308.00;1536.00;;;;;;5041621;28;20020;-66
2021/03/30 04:54:03;;;;;;;20.27;10.77;;;308.00;1536.00;;;;;;5043061;28;20474;-67
2021/03/30 04:56:29;;;;;;;18.73;10.10;;;308.10;1561.60;;;;;;5041436;28;20025;-66
2021/03/30 04:58:54;;;;;;;20.40;9.77;;;308.10;1536.00;;;;;;5041464;28;20179;-66
2021/03/30 05:01:20;;;;;;;23.15;9.00;;;332.80;1561.60;;;;;;5042744;28;20144;-59
2021/03/30 05:03:46;;;;;;;15.23;8.02;;;332.90;1561.60;;;;;;5041115;28;20024;-59
2021/03/30 05:06:11;;;;;;;14.27;8.50;;;333.00;1536.00;;;;;;5032620;28;20472;-60
2021/03/30 05:08:37;;;;;;;17.30;8.05;;;333.10;1536.00;;;;;;5033318;28;20029;-58
2021/03/30 05:11:03;;;;;;;19.65;7.97;;;333.10;1536.00;;;;;;5033863;28;20026;-58
2021/03/30 05:13:29;;;;;;;16.25;8.23;;;333.10;1510.40;;;;;;5033777;28;20026;-59
2021/03/30 05:15:55;;;;;;;15.75;8.07;;;333.10;1536.00;;;;;;5033988;28;20028;-65
2021/03/30 05:18:20;;;;;;;15.13;8.32;;;333.10;1536.00;;;;;;5034040;28;20552;-61
2021/03/30 05:20:46;;;;;;;17.10;8.65;;;333.20;1536.00;;;;;;5033867;28;20550;-63
2021/03/30 05:23:12;;;;;;;16.85;9.00;;;333.30;1536.00;;;;;;5034168;28;20026;-59
2021/03/30 05:25:38;;;;;;;17.45;9.43;;;333.30;1510.40;;;;;;5033622;28;20060;-59
2021/03/30 05:28:05;;;;;;;17.77;10.13;;;333.30;1536.00;;;;;;5033801;28;20025;-58
2021/03/30 05:30:31;;;;;;;19.08;10.90;;;333.40;1510.40;;;;;;5033861;28;20045;-63
2021/03/30 05:32:57;;;;;;;19.13;12.30;;;333.40;1510.40;;;;;;5033615;28;20032;-58
2021/03/30 05:35:23;;;;;;;24.10;14.98;;;333.40;1510.40;;;;;;5033904;28;20029;-65
2021/03/30 05:37:49;;;;;;;25.80;14.88;;;333.50;1510.40;;;;;;5033757;28;20030;-60
2021/03/30 05:40:18;;;;;;;20.95;11.35;;;333.60;1484.80;;;;;;5033639;28;20033;-60
2021/03/30 05:42:45;;;;;;;17.27;10.20;;;333.60;1484.80;;;;;;5033651;28;20029;-61
2021/03/30 05:45:13;;;;;;;17.80;9.95;;;333.70;1484.80;;;;;;5032460;28;20032;-62
2021/03/30 05:47:39;;;;;;;20.00;10.20;;;358.40;1459.20;;;;;;5032554;28;20112;-62
2021/03/30 05:50:07;;;;;;;23.27;13.20;;;358.50;1459.20;;;;;;5033505;28;20111;-59
2021/03/30 05:52:47;;;;;;;33.30;16.95;;;358.50;1459.20;;;;;;5033490;28;20025;-58
2021/03/30 05:55:38;;;;;;;43.40;21.77;;;358.60;1459.20;;;;;;5033486;28;20032;-61
2021/03/30 05:58:06;;;;;;;48.63;24.80;;;358.70;1433.60;;;;;;5011664;28;20407;-60
2021/03/30 06:00:42;;;;;;;60.50;30.83;;;358.80;1433.60;;;;;;5010112;28;20042;-58
2021/03/30 06:03:29;;;;;;;58.00;30.45;;;358.90;1433.60;;;;;;5009818;28;20034;-63
2021/03/30 06:05:59;;;;;;;61.83;31.67;;;358.90;1433.60;;;;;;5007409;28;20030;-63
2021/03/30 06:08:29;;;;;;;54.83;29.25;;;358.90;1433.60;;;;;;5009900;28;20506;-67
2021/03/30 06:10:58;;;;;;;45.67;25.95;;;359.00;1408.00;;;;;;5007156;28;20013;-61
2021/03/30 06:13:53;;;;;;;40.58;22.65;;;359.10;1433.60;;;;;;5010079;28;20033;-66
2021/03/30 06:16:29;;;;;;;34.28;19.95;;;359.10;1433.60;;;;;;4908821;29;20115;-57
2021/03/30 06:19:21;;;;;;;40.10;22.00;;;359.10;1433.60;;;;;;4913423;29;20422;-58
2021/03/30 06:21:59;;;;;;;39.42;21.75;;;359.10;1433.60;;;;;;4909401;29;20048;-60
2021/03/30 06:24:25;;;;;;;38.10;20.80;;;359.10;1433.60;;;;;;4912667;29;20037;-64
2021/03/30 06:26:56;;;;;;;39.90;20.75;;;359.20;1459.20;;;;;;4912784;29;20425;-59
2021/03/30 06:29:36;;;;;;;45.03;23.15;;;359.20;1459.20;;;;;;4912823;29;20131;-66
2021/03/30 06:32:04;;;;;;;39.95;23.45;;;359.30;1459.20;;;;;;4912719;29;20032;-65
2021/03/30 06:34:32;;;;;;;37.58;20.38;;;359.30;1459.20;;;;;;4923357;29;20063;-59
2021/03/30 06:36:58;;;;;;;38.75;20.10;;;384.00;1459.20;;;;;;4948697;29;20027;-68
2021/03/30 06:39:38;;;;;;;34.28;19.48;;;384.00;1459.20;;;;;;4950997;28;20038;-61
2021/03/30 06:44:56;;;;;;;37.47;20.58;;;384.20;1459.20;;;;;;4942531;29;20453;-61
2021/03/30 06:47:23;;;;;;;36.35;23.05;;;384.30;1484.80;;;;;;4941964;29;20043;-59
2021/03/30 06:49:55;;;;;;;32.47;20.33;;;384.50;1459.20;;;;;;4942370;29;20035;-60
2021/03/30 06:52:28;;;;;;;29.23;19.70;;;384.50;1484.80;;;;;;4962175;28;20042;-59
2021/03/30 06:54:59;;;;;;;23.80;15.00;;;384.60;1484.80;;;;;;4999810;28;20033;-58
2021/03/30 06:57:36;;;;;;;21.88;12.25;;;384.60;1459.20;;;;;;5013910;28;20495;-58
2021/03/30 07:00:32;;;;;;;17.77;9.52;;;384.60;1459.20;;;;;;5013833;28;20524;-63
2021/03/30 07:03:10;;;;;;;16.95;8.50;;;384.60;1484.80;;;;;;4955354;28;20035;-59
2021/03/30 07:05:41;;;;;;;15.05;8.23;;;384.60;1510.40;;;;;;4955037;29;20127;-58
2021/03/30 07:08:18;;;;;;;14.00;7.03;;;384.70;1484.80;;;;;;4953822;28;20151;-64
2021/03/30 07:10:52;;;;;;;14.70;8.25;;;384.80;1459.20;;;;;;4954424;28;20070;-59
2021/03/30 07:13:21;;;;;;;14.95;9.43;;;384.70;1459.20;;;;;;4954278;28;20062;-58
2021/03/30 07:15:54;;;;;;;17.02;10.90;;;384.80;1408.00;;;;;;4953942;29;20038;-61
2021/03/30 07:18:40;;;;;;;21.88;13.23;;;384.90;1408.00;;;;;;4954941;29;20031;-59
2021/03/30 07:21:11;;;;;;;47.30;19.25;;;384.90;1408.00;;;;;;4959597;28;20124;-60
2021/03/30 07:23:39;;;;;;;44.47;17.27;;;409.60;1433.60;;;;;;4974119;28;20045;-57
2021/03/30 07:26:10;;;;;;;38.28;15.80;;;409.70;1408.00;;;;;;4975088;28;20054;-58
2021/03/30 07:28:57;;;;;;;36.03;17.30;;;409.70;1408.00;;;;;;4974794;28;20089;-57
2021/03/30 07:31:28;;;;;;;26.00;13.23;;;409.70;1408.00;;;;;;4974912;28;20031;-59
2021/03/30 07:34:03;;;;;;;22.20;12.32;;;409.70;1408.00;;;;;;4974972;28;20035;-60
2021/03/30 07:36:35;;;;;;;25.10;16.58;;;409.70;1433.60;;;;;;4975078;28;20027;-58
2021/03/30 07:39:03;;;;;;;25.65;16.52;;;409.80;1433.60;;;;;;4997701;28;20033;-57
2021/03/30 07:41:29;;;;;;;37.80;26.92;;;409.90;1408.00;;;;;;5034102;28;20100;-57
2021/03/30 07:44:01;;;;;;;40.42;28.55;;;409.90;1408.00;;;;;;5034722;28;20097;-57
2021/03/30 07:46:28;;;;;;;44.58;30.83;;;409.90;1408.00;;;;;;5031362;28;20033;-57
2021/03/30 07:48:55;;;;;;;39.80;25.70;;;410.00;1382.40;;;;;;5035263;28;20032;-57
2021/03/30 07:51:24;;;;;;;27.17;17.92;;;410.10;1382.40;;;;;;5035644;28;20026;-56
2021/03/30 07:53:51;;;;;;;19.40;9.07;;;410.20;1356.80;;;;;;5035293;28;20086;-57
2021/03/30 07:56:26;;;;;;;17.20;9.50;;;410.30;1356.80;;;;;;5032948;28;20555;-57
2021/03/30 07:58:53;;;;;;;24.83;15.35;;;410.40;1356.80;;;;;;5031755;28;20033;-56
2021/03/30 08:01:24;;;;;;;18.50;10.68;;;410.50;1356.80;;;;;;5029008;28;20041;-60
2021/03/30 08:03:53;;;;;;;14.88;8.07;;;410.50;1331.20;;;;;;5033296;28;20024;-56
2021/03/30 08:06:31;;;;;;;12.35;7.70;;;410.50;1331.20;;;;;;5033686;28;20383;-60
2021/03/30 08:09:10;;;;;;;17.67;8.65;;;410.50;1356.80;;;;;;5033521;28;20038;-60
2021/03/30 08:11:46;;;;;;;17.50;9.88;;;410.50;1382.40;;;;;;5033726;28;20029;-59
2021/03/30 08:14:18;;;;;;;25.65;14.15;;;410.40;1382.40;;;;;;5043652;28;20025;-60
2021/03/30 08:16:47;;;;;;;18.63;11.13;;;410.40;1382.40;;;;;;5041974;28;20017;-61
2021/03/30 08:19:14;;;;;;;20.73;10.68;;;410.30;1408.00;;;;;;5054328;28;20021;-64
2021/03/30 08:21:52;;;;;;;19.80;12.50;;;410.30;1408.00;;;;;;5054327;28;20088;-62
2021/03/30 08:24:19;;;;;;;19.02;11.25;;;410.40;1433.60;;;;;;5053932;28;20455;-60
2021/03/30 08:26:46;;;;;;;20.58;12.88;;;410.40;1408.00;;;;;;5034900;28;20033;-61
2021/03/30 08:29:18;;;;;;;18.73;11.13;;;410.40;1408.00;;;;;;5033939;28;20053;-58
2021/03/30 08:31:53;;;;;;;22.52;12.00;;;410.50;1408.00;;;;;;5034426;28;20064;-63
2021/03/30 08:34:22;;;;;;;;;;;435.20;1408.00;;;;;;5035237;28;20022;-69
2021/03/30 08:36:57;;;;;;;25.17;13.10;;;410.50;1408.00;;;;;;5034674;28;19905;-57
2021/03/30 08:39:22;;;;;;;35.45;23.60;;;410.50;1356.80;;;;;;5034168;28;20030;-57
2021/03/30 08:41:54;;;;;;;25.67;14.40;;;410.50;1356.80;;;;;;5034598;28;20108;-57
2021/03/30 08:44:20;;;;;;;23.48;13.07;;;435.20;1356.80;;;;;;5034158;28;20061;-57
2021/03/30 08:46:51;;;;;;;24.50;13.52;;;435.40;1331.20;;;;;;5030393;28;20028;-56
2021/03/30 08:49:44;;;;;;;23.85;13.02;;;435.50;1331.20;;;;;;5033211;28;20075;-59
2021/03/30 08:52:10;;;;;;;23.85;12.73;;;435.40;1356.80;;;;;;5033056;28;20113;-68
2021/03/30 08:54:52;;;;;;;26.42;14.45;;;435.30;1382.40;;;;;;5033149;28;20036;-57
2021/03/30 08:57:26;;;;;;;28.00;17.25;;;435.40;1382.40;;;;;;5033528;28;20030;-62
2021/03/30 08:59:52;;;;;;;18.45;10.07;;;435.30;1356.80;;;;;;5033583;28;20041;-63
2021/03/30 09:02:26;;;;;;;29.38;16.92;;;435.30;1356.80;;;;;;5033323;28;20411;-64
2021/03/30 09:04:52;;;;;;;27.85;16.58;;;435.40;1331.20;;;;;;5033437;28;20562;-57
2021/03/30 09:07:19;;;;;;;20.83;11.13;;;435.50;1331.20;;;;;;5031880;28;20025;-57
2021/03/30 09:09:46;;;;;;;26.20;14.20;;;435.60;1331.20;;;;;;5017921;28;20376;-58
2021/03/30 09:12:18;;;;;;;30.15;19.05;;;435.60;1331.20;;;;;;5028290;28;20034;-59
2021/03/30 09:14:57;;;;;;;26.40;12.82;;;435.70;1331.20;;;;;;5031658;28;20450;-58
2021/03/30 09:17:23;;;;;;;26.55;17.70;;;435.70;1305.60;;;;;;5031479;28;20083;-59
2021/03/30 09:19:50;;;;;;;37.15;18.70;;;435.80;1305.60;;;;;;5032873;28;20033;-58
2021/03/30 09:22:26;;;;;;;19.40;10.00;;;435.90;1305.60;;;;;;5029274;28;20303;-59
2021/03/30 09:25:04;;;;;;;20.73;10.23;;;460.80;1280.00;;;;;;5031631;28;20045;-57
2021/03/30 09:27:33;;;;;;;16.65;8.88;;;460.80;1280.00;;;;;;5032648;28;20010;-58
2021/03/30 09:30:03;;;;;;;17.52;10.05;;;461.00;1254.40;;;;;;5031838;28;20041;-57
2021/03/30 09:32:31;;;;;;;20.02;9.38;;;461.20;1254.40;;;;;;5033537;28;20056;-58
2021/03/30 09:35:04;;;;;;;18.92;9.65;;;461.30;1228.80;;;;;;5032996;28;20025;-61
2021/03/30 09:37:35;;;;;;;18.95;9.80;;;461.20;1254.40;;;;;;5033230;28;20026;-57
2021/03/30 09:40:18;;;;;;;18.23;9.35;;;461.20;1228.80;;;;;;5031730;28;20091;-58
2021/03/30 09:42:45;;;;;;;18.20;10.02;;;461.20;1228.80;;;;;;5033372;28;20025;-57
2021/03/30 09:45:17;;;;;;;36.47;27.98;;;461.30;1254.40;;;;;;5033122;28;20068;-57
2021/03/30 09:47:43;;;;;;;16.00;9.40;;;461.50;1228.80;;;;;;5033124;28;20029;-61
2021/03/30 09:50:09;;;;;;;23.10;14.52;;;461.60;1203.20;;;;;;5032764;28;20025;-59
2021/03/30 09:52:37;;;;;;;22.45;16.67;;;461.70;1203.20;;;;;;5032811;28;20022;-58
2021/03/30 09:55:07;;;;;;;15.85;7.53;;;486.40;1152.00;;;;;;5032532;28;20120;-59
2021/03/30 09:57:33;;;;;;;13.85;7.07;;;486.70;1126.40;;;;;;5031564;28;20025;-62
2021/03/30 10:00:00;;;;;;;12.57;7.07;;;486.80;1126.40;;;;;;5030950;28;20079;-58
2021/03/30 10:02:27;;;;;;;16.42;9.20;;;487.10;1126.40;;;;;;5032146;28;20506;-58
2021/03/30 10:04:58;;;;;;;25.08;15.35;;;487.00;1126.40;;;;;;5031135;28;20055;-59
2021/03/30 10:07:32;;;;;;;25.88;17.52;;;486.90;1152.00;;;;;;5031210;28;20034;-63
2021/03/30 10:09:58;;;;;;;83.55;49.70;;;512.10;1100.80;;;;;;5031146;28;20487;-63
2021/03/30 10:12:29;;;;;;;56.72;29.45;;;512.30;1075.20;;;;;;5030443;28;20034;-63
2021/03/30 10:14:54;;;;;;;18.88;11.15;;;512.40;1075.20;;;;;;5031197;28;20026;-65
2021/03/30 10:17:21;;;;;;;20.80;14.35;;;512.70;1024.00;;;;;;5031797;28;20030;-64
2021/03/30 10:19:51;;;;;;;19.58;10.35;;;537.90;1024.00;;;;;;5031212;28;20513;-62
2021/03/30 10:22:30;;;;;;;16.40;8.88;;;538.50;998.40;;;;;;5030886;28;20021;-59
2021/03/30 10:25:14;;;;;;;22.70;14.55;;;563.80;998.40;;;;;;5032640;28;20041;-60
2021/03/30 10:27:53;;;;;;;14.27;7.80;;;563.90;947.20;;;;;;5032653;28;20021;-59
2021/03/30 10:30:35;;;;;;;18.83;10.80;;;589.10;870.40;;;;;;5036314;28;20053;-59
2021/03/30 10:33:06;;;;;;;18.95;8.93;;;589.10;870.40;;;;;;5036637;28;20049;-60
2021/03/30 10:35:32;;;;;;;14.55;7.60;;;589.20;870.40;;;;;;5036443;28;20432;-59
2021/03/30 10:37:58;;;;;;;16.50;8.15;;;589.20;870.40;;;;;;5036153;28;20026;-58
2021/03/30 10:40:36;;;;;;;15.90;8.82;;;589.20;870.40;;;;;;5035702;28;20030;-58
2021/03/30 10:43:22;;;;;;;15.90;7.80;;;589.10;870.40;;;;;;5036005;28;20029;-58
2021/03/30 10:45:48;;;;;;;13.48;7.93;;;588.80;921.60;;;;;;5035553;28;20052;-58
2021/03/30 10:48:14;;;;;;;22.50;13.63;;;564.10;896.00;;;;;;5036256;28;20021;-58
2021/03/30 10:50:41;;;;;;;13.45;7.57;;;564.10;896.00;;;;;;5036379;28;20095;-57
2021/03/30 10:53:07;;;;;;;14.07;8.20;;;588.90;896.00;;;;;;5035945;28;20028;-58
2021/03/30 10:55:34;;;;;;;12.75;7.95;;;589.40;844.80;;;;;;5035690;28;20025;-58
2021/03/30 10:58:05;;;;;;;10.00;5.70;;;589.60;844.80;;;;;;5035828;28;20026;-58
2021/03/30 11:00:31;;;;;;;22.35;10.63;;;589.60;819.20;;;;;;5035898;28;20465;-64
2021/03/30 11:02:58;;;;;;;20.75;11.45;;;589.50;844.80;;;;;;5030975;28;20024;-62
2021/03/30 11:05:25;;;;;;;11.75;6.28;;;588.80;870.40;;;;;;5034631;28;20105;-63
2021/03/30 11:07:51;;;;;;;18.08;9.25;;;564.10;896.00;;;;;;5035347;28;20048;-64
2021/03/30 11:10:17;;;;;;;10.07;6.00;;;563.90;921.60;;;;;;5035048;28;20463;-58
2021/03/30 11:12:43;;;;;;;14.98;8.60;;;563.70;947.20;;;;;;5033521;28;20022;-58
2021/03/30 11:15:11;;;;;;;15.75;7.45;;;563.80;947.20;;;;;;5034693;28;20018;-58
2021/03/30 11:17:37;;;;;;;15.77;7.82;;;563.80;947.20;;;;;;5035509;28;20025;-59
2021/03/30 11:20:05;;;;;;;9.20;4.80;;;563.30;947.20;;;;;;5035400;28;20035;-58
2021/03/30 11:22:31;;;;;;;12.43;5.97;;;563.80;947.20;;;;;;5035110;28;20048;-58
2021/03/30 11:25:00;;;;;;;7.45;3.70;;;564.00;896.00;;;;;;5035051;28;20025;-58
2021/03/30 11:27:27;;;;;;;10.80;4.60;;;588.90;896.00;;;;;;5035022;28;20408;-58
2021/03/30 11:30:07;;;;;;;8.35;4.57;;;589.10;870.40;;;;;;5032939;28;20057;-58
2021/03/30 11:35:11;;;;;;;7.85;5.55;;;615.20;793.60;;;;;;5034827;28;20044;-60
2021/03/30 11:38:05;;;;;;;8.30;5.05;;;640.80;716.80;;;;;;5035153;28;20033;-59
2021/03/30 11:40:31;;;;;;;7.57;4.65;;;692.00;665.60;;;;;;5014701;28;20046;-61
2021/03/30 11:42:56;;;;;;;9.00;4.20;;;717.30;640.00;;;;;;5014558;28;20034;-59
2021/03/30 11:45:22;;;;;;;9.00;4.70;;;716.80;640.00;;;;;;5012655;28;20041;-59
2021/03/30 11:47:48;;;;;;;9.68;4.97;;;692.10;640.00;;;;;;5024552;28;20032;-61
2021/03/30 11:50:14;;;;;;;8.55;5.60;;;691.90;640.00;;;;;;5035159;28;20030;-59
2021/03/30 11:52:40;;;;;;;10.32;5.10;;;692.10;614.40;;;;;;5033969;28;20379;-58
2021/03/30 11:55:06;;;;;;;8.75;4.65;;;716.90;614.40;;;;;;5033701;28;20037;-58
2021/03/30 11:57:32;;;;;;;23.60;6.97;;;716.80;614.40;;;;;;5033400;28;20075;-58
2021/03/30 11:59:57;;;;;;;10.07;6.22;;;716.80;640.00;;;;;;5033206;28;20025;-58
2021/03/30 12:02:24;;;;;;;13.25;6.45;;;691.80;640.00;;;;;;5034432;28;20087;-58
2021/03/30 12:04:49;;;;;;;9.88;5.47;;;691.60;665.60;;;;;;5033495;28;20108;-63
2021/03/30 12:07:15;;;;;;;8.65;5.30;;;691.60;665.60;;;;;;5031668;28;20133;-58
2021/03/30 12:09:41;;;;;;;9.18;5.43;;;691.70;640.00;;;;;;5032659;28;20829;-59
2021/03/30 12:12:07;;;;;;;9.70;4.57;;;692.00;614.40;;;;;;5034551;28;20025;-57
2021/03/30 12:14:33;;;;;;;8.13;4.90;;;691.80;588.80;;;;;;5032311;28;20379;-58
2021/03/30 12:16:59;;;;;;;9.65;5.00;;;691.40;640.00;;;;;;5033727;28;20029;-62
2021/03/30 12:19:24;;;;;;;8.95;5.78;;;665.80;691.20;;;;;;5034810;28;20445;-64
2021/03/30 12:21:52;;;;;;;10.80;5.40;;;665.60;716.80;;;;;;5034164;28;20037;-63
2021/03/30 12:24:18;;;;;;;10.20;5.75;;;640.80;691.20;;;;;;5034465;28;20037;-60